White Hall, Pennsylvania
Current Conditions -  °F | °C
As of 8:30 PM on Thursday 18 Dec 2014 (Local Time) from KDMW Reporting Station
Broken Clouds Broken Clouds  
Wind Chill: 26°   Ceiling: 3000
Heat Index: 32°   Visibility: 10mi
Dew Point: 23°   Wind: 6mph
Humidity: 69%   Direction: 290°WNW
Pressure: 30.07"   Gusts: NA
Location:  39.7552°N, 77.119°W
Report Text: KDMW 190130Z AUTO 29005KT 10SM BKN030 00/M05 A3007 RMK AO2
Loading
Personal Weather Stations






























Interactive Weather Map New forecast layout! Learn more

10-Day Weather Forecast

Advertisements
Track Severe Weather on mobile